Calimesa, California
Current Conditions -  °F | °C
As of 1:58 PM on Saturday 20 Dec 2014 (Local Time) from KRIV Reporting Station
Broken Clouds Broken Clouds  
Wind Chill: 56°   Ceiling: 18000
Heat Index: 56°   Visibility: 10mi
Dew Point: 49°   Wind: 0mph
Humidity: 75%   Direction: NA
Pressure: 30.11"   Gusts: NA
Location:  34°N, 117.06°W
Report Text: KRIV 202158Z 00000KT 10SM BKN180 BKN250 14/09 A3011 RMK AO2A SLP196 T01360093
Loading
Personal Weather Stations






























Interactive Weather Map New forecast layout! Learn more

10-Day Weather Forecast

Advertisements
Track Severe Weather on mobile